Time;durP1;ratioP1;P1;durP2;ratioP2;P2;SDS_P1;SDS_P2;PMS_P1;PMS_P2;Temp;Humidity;BMP_temperature;BMP_pressure;BME280_temperature;BME280_humidity;BME280_pressure;Samples;Min_cycle;Max_cycle;Signal;HPM_P1;HPM_P2
2022/10/07 00:00:37;;;;;;;;;7.80;7.80;27.80;99.90;;;;;;5005381;28;8847;-57
2022/10/07 00:03:09;;;;;;;;;7.00;7.00;27.80;99.90;;;;;;4980112;28;8901;-57
2022/10/07 00:05:42;;;;;;;;;6.00;6.00;27.70;99.90;;;;;;4977828;28;9688;-57
2022/10/07 00:08:14;;;;;;;;;7.75;7.75;27.70;99.90;;;;;;4988108;28;8839;-57
2022/10/07 00:10:48;;;;;;;;;4.50;4.50;27.60;99.90;;;;;;4977272;28;8893;-57
2022/10/07 00:13:19;;;;;;;;;6.75;6.75;27.50;99.90;;;;;;4976906;28;8843;-59
2022/10/07 00:15:50;;;;;;;;;7.00;7.00;27.50;99.90;;;;;;4978770;28;8849;-59
2022/10/07 00:18:23;;;;;;;;;6.00;6.00;27.40;99.90;;;;;;5004756;28;8892;-58
2022/10/07 00:20:54;;;;;;;;;6.00;6.00;27.40;99.90;;;;;;4979367;28;8866;-58
2022/10/07 00:23:23;;;;;;;;;6.75;6.75;27.30;99.90;;;;;;5004189;28;8866;-56
2022/10/07 00:26:03;;;;;;;;;6.00;6.00;27.30;99.90;;;;;;4976802;28;9545;-58
2022/10/07 00:28:37;;;;;;;;;8.25;7.00;27.20;99.90;;;;;;4974759;28;8897;-58
2022/10/07 00:31:12;;;;;;;;;8.00;8.00;27.20;99.90;;;;;;4975201;28;8855;-57
2022/10/07 00:33:44;;;;;;;;;7.75;7.75;27.10;99.90;;;;;;4977786;28;8870;-57
2022/10/07 00:36:22;;;;;;;;;6.33;6.33;27.10;99.90;;;;;;4975365;28;8858;-58
2022/10/07 00:38:59;;;;;;;;;6.75;6.75;27.00;99.90;;;;;;4956143;28;8895;-58
2022/10/07 00:41:48;;;;;;;;;7.00;7.00;26.90;99.90;;;;;;4973924;28;8875;-61
2022/10/07 00:44:38;;;;;;;;;7.25;7.25;26.80;99.90;;;;;;4989796;28;8888;-62
2022/10/07 00:47:37;;;;;;;;;6.75;6.75;26.80;99.90;;;;;;4977598;28;8885;-58
2022/10/07 00:50:15;;;;;;;;;8.25;8.25;26.80;99.90;;;;;;4974221;28;9396;-60
2022/10/07 00:52:56;;;;;;;;;6.50;6.50;26.70;99.90;;;;;;4969847;28;9612;-61
2022/10/07 00:55:28;;;;;;;;;8.00;8.00;26.70;99.90;;;;;;4970340;28;8852;-57
2022/10/07 00:58:06;;;;;;;;;6.25;6.25;26.70;99.90;;;;;;4976220;28;8849;-58
2022/10/07 01:00:42;;;;;;;;;7.50;7.50;26.60;99.90;;;;;;4969392;28;8897;-59
2022/10/07 01:03:15;;;;;;;;;6.25;6.25;26.50;99.90;;;;;;4989658;28;8867;-58
2022/10/07 01:05:46;;;;;;;;;7.00;7.00;26.50;99.90;;;;;;4973943;28;9909;-60
2022/10/07 01:08:23;;;;;;;;;8.00;8.00;26.40;99.90;;;;;;4973837;28;8869;-58
2022/10/07 01:11:12;;;;;;;;;6.75;6.75;26.50;99.90;;;;;;4976054;28;8893;-57
2022/10/07 01:14:01;;;;;;;;;10.00;9.00;26.40;99.90;;;;;;4977880;28;8877;-58
2022/10/07 01:16:58;;;;;;;;;7.25;7.25;26.40;99.90;;;;;;4970465;28;8929;-57
2022/10/07 01:20:00;;;;;;;;;5.50;5.50;26.30;99.90;;;;;;5003728;28;8893;-60
2022/10/07 01:22:52;;;;;;;;;9.00;9.00;26.30;99.90;;;;;;4973255;28;8875;-58
2022/10/07 01:25:52;;;;;;;;;7.00;7.00;26.30;99.90;;;;;;4972154;28;8869;-61
2022/10/07 01:28:36;;;;;;;;;7.00;7.00;26.20;99.90;;;;;;5001423;28;8869;-57
2022/10/07 01:31:10;;;;;;;;;7.25;7.25;26.20;99.90;;;;;;4971962;28;8893;-58
2022/10/07 01:33:45;;;;;;;;;6.00;6.00;26.00;99.90;;;;;;4976242;28;8854;-61
2022/10/07 01:36:21;;;;;;;;;7.00;7.00;25.90;99.90;;;;;;4974123;28;8893;-65
2022/10/07 01:38:58;;;;;;;;;8.50;8.50;25.90;99.90;;;;;;4975133;28;8869;-66
2022/10/07 01:41:29;;;;;;;;;5.75;5.75;25.80;99.90;;;;;;4976897;28;9553;-66
2022/10/07 01:44:02;;;;;;;;;7.00;7.00;25.60;99.90;;;;;;4964034;28;8858;-67
2022/10/07 01:46:36;;;;;;;;;9.00;9.00;25.50;99.90;;;;;;4972924;28;8912;-63
2022/10/07 01:49:08;;;;;;;;;7.75;7.75;25.40;99.90;;;;;;4983103;28;8848;-70
2022/10/07 01:51:53;;;;;;;;;7.50;7.50;25.30;99.90;;;;;;4977266;28;8900;-58
2022/10/07 01:54:32;;;;;;;;;8.50;8.50;25.20;99.90;;;;;;4970792;28;9928;-61
2022/10/07 01:57:02;;;;;;;;;7.25;7.25;25.10;99.90;;;;;;4968396;28;8851;-59
2022/10/07 02:00:04;;;;;;;;;10.00;10.00;25.00;99.90;;;;;;4986341;28;8869;-57
2022/10/07 02:03:06;;;;;;;;;8.00;8.00;24.90;99.90;;;;;;4973391;28;8925;-58
2022/10/07 02:06:25;;;;;;;;;8.00;8.00;24.80;99.90;;;;;;4968096;28;8877;-58
2022/10/07 02:09:04;;;;;;;;;8.50;8.50;24.80;99.90;;;;;;4954010;28;8851;-59
2022/10/07 02:11:41;;;;;;;;;8.75;8.50;24.70;99.90;;;;;;4968231;28;8862;-57
2022/10/07 02:14:19;;;;;;;;;8.00;8.00;24.60;99.90;;;;;;4955979;28;8854;-58
2022/10/07 02:17:14;;;;;;;;;8.00;8.00;24.50;99.90;;;;;;4976187;28;8858;-58
2022/10/07 02:19:52;;;;;;;;;7.00;7.00;24.40;99.90;;;;;;4976954;28;8858;-60
2022/10/07 02:22:27;;;;;;;;;7.25;7.25;24.40;99.90;;;;;;4975992;28;8866;-59
2022/10/07 02:25:02;;;;;;;;;7.00;7.00;24.30;99.90;;;;;;4974926;28;8883;-57
2022/10/07 02:27:38;;;;;;;;;7.00;7.00;24.30;99.90;;;;;;4977404;28;8830;-57
2022/10/07 02:30:19;;;;;;;;;9.00;7.00;24.30;99.90;;;;;;4990723;28;8886;-60
2022/10/07 02:32:56;;;;;;;;;7.75;7.75;24.30;99.90;;;;;;4976713;28;8901;-57
2022/10/07 02:36:04;;;;;;;;;6.25;6.25;24.20;99.90;;;;;;4974035;28;8855;-59
2022/10/07 02:38:34;;;;;;;;;7.00;7.00;24.20;99.90;;;;;;4971236;28;8867;-58
2022/10/07 02:41:30;;;;;;;;;10.00;10.00;24.20;99.90;;;;;;4976049;28;8847;-59
2022/10/07 02:44:33;;;;;;;;;10.00;10.00;24.10;99.90;;;;;;4975872;28;8881;-58
2022/10/07 02:47:17;;;;;;;;;8.75;8.75;24.20;99.90;;;;;;4976741;28;8906;-58
2022/10/07 02:49:56;;;;;;;;;8.25;8.25;24.00;99.90;;;;;;4976220;28;8862;-56
2022/10/07 02:52:31;;;;;;;;;8.00;8.00;24.10;99.90;;;;;;4976515;28;8921;-58
2022/10/07 02:55:08;;;;;;;;;8.00;8.00;24.00;99.90;;;;;;4991474;28;8870;-59
2022/10/07 02:57:53;;;;;;;;;9.75;9.25;24.00;99.90;;;;;;4977551;28;8870;-58
2022/10/07 03:00:24;;;;;;;;;9.00;7.50;23.90;99.90;;;;;;5004442;28;8941;-60
2022/10/07 03:02:56;;;;;;;;;7.75;7.75;23.80;99.90;;;;;;4977676;28;9849;-59
2022/10/07 03:05:36;;;;;;;;;7.50;7.50;23.80;99.90;;;;;;4981624;28;8877;-57
2022/10/07 03:08:16;;;;;;;;;7.50;7.50;23.90;99.90;;;;;;4959039;28;8841;-59
2022/10/07 03:10:49;;;;;;;;;6.25;5.00;23.80;99.90;;;;;;4975322;28;8849;-62
2022/10/07 03:13:23;;;;;;;;;9.50;9.50;23.80;99.90;;;;;;4992638;28;9593;-57
2022/10/07 03:16:04;;;;;;;;;9.50;9.50;23.80;99.90;;;;;;4991083;28;8835;-55
2022/10/07 03:18:35;;;;;;;;;9.00;9.00;23.70;99.90;;;;;;5011878;28;8826;-56
2022/10/07 03:21:15;;;;;;;;;8.50;8.50;23.70;99.90;;;;;;4975519;28;8870;-56
2022/10/07 03:23:52;;;;;;;;;9.00;9.00;23.60;99.90;;;;;;5009615;28;8850;-56
2022/10/07 03:26:30;;;;;;;;;7.00;7.00;23.50;99.90;;;;;;4993190;28;9004;-55
2022/10/07 03:29:01;;;;;;;;;7.50;7.50;23.60;99.90;;;;;;4997102;28;8893;-57
2022/10/07 03:31:33;;;;;;;;;9.75;9.75;23.50;99.90;;;;;;5005118;28;8861;-58
2022/10/07 03:34:03;;;;;;;;;9.25;9.25;23.40;99.90;;;;;;4978135;28;8859;-63
2022/10/07 03:36:35;;;;;;;;;8.75;8.75;23.30;99.90;;;;;;4991199;28;8885;-59
2022/10/07 03:39:08;;;;;;;;;10.25;9.25;23.30;99.90;;;;;;4963705;28;8893;-60
2022/10/07 03:41:40;;;;;;;;;9.25;9.25;23.30;99.90;;;;;;4994475;28;8846;-59
2022/10/07 03:44:11;;;;;;;;;9.75;9.75;23.30;99.90;;;;;;4976227;28;8980;-59
2022/10/07 03:46:42;;;;;;;;;8.75;8.75;23.30;99.90;;;;;;4994442;28;8869;-59
2022/10/07 03:49:13;;;;;;;;;11.00;11.00;23.20;99.90;;;;;;4974309;28;8889;-59
2022/10/07 03:51:43;;;;;;;;;9.00;9.00;23.10;99.90;;;;;;4977333;28;8890;-60
2022/10/07 03:54:17;;;;;;;;;8.25;8.25;23.20;99.90;;;;;;4978569;28;9624;-59
2022/10/07 03:56:47;;;;;;;;;9.75;9.75;23.10;99.90;;;;;;4978824;28;8868;-58
2022/10/07 03:59:19;;;;;;;;;10.75;9.25;23.10;99.90;;;;;;4978818;28;8853;-59
2022/10/07 04:01:51;;;;;;;;;11.00;11.00;23.10;99.90;;;;;;4991377;28;9036;-58
2022/10/07 04:04:23;;;;;;;;;9.00;9.00;23.00;99.90;;;;;;4977681;28;8835;-58
2022/10/07 04:06:54;;;;;;;;;10.00;10.00;23.00;99.90;;;;;;4978056;28;8884;-56
2022/10/07 04:09:26;;;;;;;;;10.25;10.25;22.90;99.90;;;;;;4979491;28;8866;-59
2022/10/07 04:11:57;;;;;;;;;9.50;9.50;22.80;99.90;;;;;;4961081;28;8881;-59
2022/10/07 04:14:31;;;;;;;;;10.00;10.00;22.80;99.90;;;;;;4973600;28;8899;-59
2022/10/07 04:17:02;;;;;;;;;8.25;8.25;22.80;99.90;;;;;;4980092;28;8847;-60
2022/10/07 04:19:35;;;;;;;;;8.75;8.75;22.80;99.90;;;;;;4957142;28;8843;-59
2022/10/07 04:22:06;;;;;;;;;9.00;9.00;22.80;99.90;;;;;;4990506;28;8858;-58
2022/10/07 04:24:39;;;;;;;;;7.00;7.00;22.80;99.90;;;;;;4960688;28;8843;-57
2022/10/07 04:27:10;;;;;;;;;7.75;7.75;22.70;99.90;;;;;;4975222;28;8973;-57
2022/10/07 04:30:03;;;;;;;;;10.50;10.50;22.70;99.90;;;;;;4998214;28;9018;-60
2022/10/07 04:32:35;;;;;;;;;10.00;10.00;22.70;99.90;;;;;;4968966;28;8852;-60
2022/10/07 04:35:06;;;;;;;;;11.75;11.75;22.70;99.90;;;;;;4974790;28;8893;-57
2022/10/07 04:37:40;;;;;;;;;9.75;9.75;22.70;99.90;;;;;;4972224;28;8845;-57
2022/10/07 04:40:10;;;;;;;;;9.25;9.25;22.70;99.90;;;;;;4972620;28;8893;-57
2022/10/07 04:45:42;;;;;;;;;9.00;9.00;22.70;99.90;;;;;;4955206;28;8874;-58
2022/10/07 04:48:16;;;;;;;;;9.00;9.00;22.60;99.90;;;;;;4972745;28;8846;-59
2022/10/07 04:50:47;;;;;;;;;7.75;7.75;22.60;99.90;;;;;;4971211;28;9573;-60
2022/10/07 04:53:19;;;;;;;;;9.75;9.75;22.60;99.90;;;;;;4973133;28;8866;-58
2022/10/07 04:55:51;;;;;;;;;12.00;12.00;22.60;99.90;;;;;;4970970;28;8874;-57
2022/10/07 04:58:25;;;;;;;;;11.00;11.00;22.60;99.90;;;;;;4974162;28;8841;-61
2022/10/07 05:00:58;;;;;;;;;8.75;8.75;22.60;99.90;;;;;;4967561;28;8876;-59
2022/10/07 05:03:42;;;;;;;;;9.50;9.50;22.50;99.90;;;;;;5003927;28;8862;-59
2022/10/07 05:06:14;;;;;;;;;8.75;8.75;22.40;99.90;;;;;;4954731;28;8909;-59
2022/10/07 05:08:48;;;;;;;;;9.25;9.25;22.40;99.90;;;;;;4972605;28;8862;-58
2022/10/07 05:11:20;;;;;;;;;10.00;10.00;22.40;99.90;;;;;;4989710;28;8842;-57
2022/10/07 05:14:03;;;;;;;;;10.25;10.25;22.40;99.90;;;;;;4972621;28;9677;-59
2022/10/07 05:16:36;;;;;;;;;9.75;9.75;22.40;99.90;;;;;;4974847;28;8962;-59
2022/10/07 05:19:09;;;;;;;;;11.00;11.00;22.30;99.90;;;;;;4968357;28;8865;-60
2022/10/07 05:21:42;;;;;;;;;9.25;8.50;22.30;99.90;;;;;;4970653;28;8841;-61
2022/10/07 05:24:16;;;;;;;;;10.25;10.25;22.30;99.90;;;;;;4951546;28;8901;-58
2022/10/07 05:26:50;;;;;;;;;11.50;11.50;22.30;99.90;;;;;;4968336;28;8892;-58
2022/10/07 05:29:23;;;;;;;;;8.00;8.00;22.30;99.90;;;;;;4974620;28;8885;-61
2022/10/07 05:31:55;;;;;;;;;10.75;10.75;22.30;99.90;;;;;;4972034;28;8972;-62
2022/10/07 05:34:34;;;;;;;;;9.50;9.50;22.20;99.90;;;;;;5005184;28;8836;-60
2022/10/07 05:37:06;;;;;;;;;9.50;9.50;22.20;99.90;;;;;;4976778;28;8847;-60
2022/10/07 05:39:45;;;;;;;;;10.00;10.00;22.20;99.90;;;;;;4958907;28;8850;-60
2022/10/07 05:42:20;;;;;;;;;11.50;11.50;22.10;99.90;;;;;;4989006;28;8838;-62
2022/10/07 05:44:56;;;;;;;;;10.50;10.50;22.20;99.90;;;;;;4988197;28;8859;-59
2022/10/07 05:47:28;;;;;;;;;12.00;10.00;22.40;99.90;;;;;;4972974;28;8843;-61
2022/10/07 05:50:07;;;;;;;;;10.00;10.00;22.40;99.90;;;;;;4968933;28;8829;-60
2022/10/07 05:52:39;;;;;;;;;12.00;12.00;22.30;99.90;;;;;;5002817;28;8845;-63
2022/10/07 05:55:11;;;;;;;;;11.75;11.75;22.20;99.90;;;;;;4970582;28;8854;-62
2022/10/07 05:57:41;;;;;;;;;11.00;11.00;22.20;99.90;;;;;;4975921;28;8874;-58
2022/10/07 06:00:15;;;;;;;;;9.50;9.50;22.10;99.90;;;;;;4952816;28;9621;-60
2022/10/07 06:02:51;;;;;;;;;10.75;10.75;22.10;99.90;;;;;;4991309;28;8874;-59
2022/10/07 06:05:23;;;;;;;;;11.00;11.00;22.10;99.90;;;;;;4972623;28;8859;-59
2022/10/07 06:07:58;;;;;;;;;12.25;11.00;22.10;99.90;;;;;;4963310;28;8901;-58
2022/10/07 06:13:16;;;;;;;;;10.25;10.25;22.10;99.90;;;;;;5007023;28;8916;-60
2022/10/07 06:15:50;;;;;;;;;9.50;9.50;22.10;99.90;;;;;;4970076;28;8872;-59
2022/10/07 06:18:21;;;;;;;;;8.00;8.00;22.00;99.90;;;;;;4970323;28;8863;-58
2022/10/07 06:20:59;;;;;;;;;11.50;11.50;22.10;99.90;;;;;;4976220;28;8850;-58
2022/10/07 06:23:31;;;;;;;;;10.75;10.75;22.10;99.90;;;;;;5005209;28;8851;-61
2022/10/07 06:26:05;;;;;;;;;10.00;10.00;22.20;99.90;;;;;;4965032;28;8876;-63
2022/10/07 06:28:40;;;;;;;;;10.00;10.00;22.10;99.90;;;;;;4964229;28;8879;-57
2022/10/07 06:31:24;;;;;;;;;10.00;9.75;22.10;99.90;;;;;;4989668;28;9453;-59
2022/10/07 06:34:01;;;;;;;;;10.00;10.00;22.10;99.90;;;;;;4976055;28;8885;-58
2022/10/07 06:36:33;;;;;;;;;10.00;10.00;22.10;99.90;;;;;;4978066;28;8848;-57
2022/10/07 06:39:04;;;;;;;;;9.00;9.00;22.20;99.90;;;;;;4966661;28;8892;-58
2022/10/07 06:41:43;;;;;;;;;10.00;10.00;22.30;99.90;;;;;;4969705;28;8862;-59
2022/10/07 06:44:41;;;;;;;;;8.50;8.50;22.30;99.90;;;;;;4973860;28;8863;-59
2022/10/07 06:47:18;;;;;;;;;8.75;8.75;22.40;99.90;;;;;;4968698;28;8884;-58
2022/10/07 06:49:49;;;;;;;;;8.75;8.75;22.40;99.90;;;;;;4972299;28;8854;-60
2022/10/07 06:52:23;;;;;;;;;9.00;9.00;22.40;99.90;;;;;;4966109;28;8903;-63
2022/10/07 06:54:57;;;;;;;;;9.50;9.50;22.40;99.90;;;;;;4957928;28;9926;-60
2022/10/07 06:57:33;;;;;;;;;6.00;6.00;22.30;99.90;;;;;;4988920;28;8849;-57
2022/10/07 07:00:26;;;;;;;;;9.75;8.00;22.30;99.90;;;;;;4972381;28;9605;-59
2022/10/07 07:03:00;;;;;;;;;8.25;8.25;22.30;99.90;;;;;;4990925;28;8851;-59
2022/10/07 07:05:39;;;;;;;;;8.00;8.00;22.30;99.90;;;;;;4990772;28;8877;-60
2022/10/07 07:08:18;;;;;;;;;8.75;8.75;22.30;99.90;;;;;;4976403;28;8855;-60
2022/10/07 07:10:47;;;;;;;;;8.00;8.00;22.30;99.90;;;;;;4969856;28;9039;-62
2022/10/07 07:13:18;;;;;;;;;6.25;6.25;22.30;99.90;;;;;;4979589;28;8898;-60
2022/10/07 07:15:59;;;;;;;;;6.00;6.00;22.40;99.90;;;;;;4991660;28;9576;-61
2022/10/07 07:18:35;;;;;;;;;8.50;8.50;22.30;99.90;;;;;;4994802;28;8859;-59
2022/10/07 07:21:06;;;;;;;;;8.00;8.00;22.30;99.90;;;;;;5006769;28;8870;-59
2022/10/07 07:23:38;;;;;;;;;7.50;7.50;22.30;99.90;;;;;;4972553;28;8865;-59
2022/10/07 07:26:09;;;;;;;;;8.75;8.75;22.40;99.90;;;;;;4966859;28;8902;-60
2022/10/07 07:28:41;;;;;;;;;6.00;6.00;22.40;99.90;;;;;;4970162;28;9162;-59
2022/10/07 07:31:12;;;;;;;;;7.75;7.75;22.30;99.90;;;;;;4984173;28;8834;-59
2022/10/07 07:33:43;;;;;;;;;8.50;8.50;22.40;99.90;;;;;;4969594;28;9830;-62
2022/10/07 07:36:17;;;;;;;;;8.00;8.00;22.30;99.90;;;;;;4955632;28;9985;-60
2022/10/07 07:39:01;;;;;;;;;9.25;8.50;22.40;99.90;;;;;;4971353;28;8831;-60
2022/10/07 07:41:37;;;;;;;;;8.00;8.00;22.30;99.90;;;;;;4957697;28;8834;-61
2022/10/07 07:44:13;;;;;;;;;6.25;6.25;22.20;99.90;;;;;;4972664;28;8867;-60
2022/10/07 07:46:47;;;;;;;;;7.25;7.25;22.10;99.90;;;;;;4969696;28;8867;-60
2022/10/07 07:49:20;;;;;;;;;8.25;8.25;22.00;99.90;;;;;;4974557;28;8846;-59
2022/10/07 07:51:50;;;;;;;;;8.25;8.25;21.90;99.90;;;;;;4987100;28;9588;-60
2022/10/07 07:54:32;;;;;;;;;7.00;7.00;21.90;99.90;;;;;;4969422;28;8870;-58
2022/10/07 07:57:04;;;;;;;;;7.25;7.25;21.90;99.90;;;;;;4988284;28;8874;-58
2022/10/07 07:59:38;;;;;;;;;8.25;8.25;21.90;99.90;;;;;;4975108;28;8853;-58
2022/10/07 08:02:11;;;;;;;;;7.00;7.00;21.90;99.90;;;;;;4977244;28;8882;-58
2022/10/07 08:04:45;;;;;;;;;7.00;7.00;21.90;99.90;;;;;;4957331;28;8874;-60
2022/10/07 08:07:16;;;;;;;;;8.25;8.25;21.90;99.90;;;;;;4974539;28;8857;-61
2022/10/07 08:09:49;;;;;;;;;7.00;7.00;21.90;99.90;;;;;;4974284;28;8818;-59
2022/10/07 08:12:20;;;;;;;;;8.25;8.25;21.90;99.90;;;;;;4972482;28;8856;-58
2022/10/07 08:14:54;;;;;;;;;7.00;7.00;21.90;99.90;;;;;;5002792;28;8859;-59
2022/10/07 08:17:26;;;;;;;;;9.00;9.00;21.90;99.90;;;;;;4976621;28;8898;-59
2022/10/07 08:20:00;;;;;;;;;8.50;8.50;21.70;99.90;;;;;;4980700;28;8848;-59
2022/10/07 08:22:29;;;;;;;;;7.75;7.00;21.70;99.90;;;;;;4966900;28;8869;-59
2022/10/07 08:24:59;;;;;;;;;5.25;5.25;21.70;99.90;;;;;;4956610;28;8974;-58
2022/10/07 08:27:32;;;;;;;;;8.00;8.00;21.70;99.90;;;;;;4975380;28;8835;-57
2022/10/07 08:30:02;;;;;;;;;9.00;9.00;21.70;99.90;;;;;;4971112;28;8851;-57
2022/10/07 08:32:34;;;;;;;;;9.00;9.00;21.80;99.90;;;;;;4992948;28;8862;-58
2022/10/07 08:35:06;;;;;;;;;8.75;8.75;21.70;99.90;;;;;;4970788;28;8865;-60
2022/10/07 08:37:37;;;;;;;;;11.00;9.00;21.70;99.90;;;;;;4973238;28;8881;-59
2022/10/07 08:40:14;;;;;;;;;8.50;8.50;21.60;99.90;;;;;;4975642;28;8868;-59
2022/10/07 08:42:46;;;;;;;;;6.75;6.75;21.60;99.90;;;;;;4969818;28;8897;-57
2022/10/07 08:45:30;;;;;;;;;8.25;8.25;21.60;99.90;;;;;;4972751;28;9648;-60
2022/10/07 08:48:04;;;;;;;;;8.00;8.00;21.70;99.90;;;;;;4976316;28;9008;-59
2022/10/07 08:50:57;;;;;;;;;5.75;5.75;21.70;99.90;;;;;;4972160;28;8850;-61
2022/10/07 08:53:33;;;;;;;;;7.00;7.00;21.60;99.90;;;;;;4971752;28;8874;-57
2022/10/07 08:56:22;;;;;;;;;10.00;10.00;21.50;99.90;;;;;;4966201;28;8854;-56
2022/10/07 08:59:23;;;;;;;;;8.75;8.75;21.50;99.90;;;;;;4968085;28;8857;-61
2022/10/07 09:02:02;;;;;;;;;8.00;8.00;21.60;99.90;;;;;;4973798;28;8885;-58
2022/10/07 09:05:04;;;;;;;;;6.50;6.50;21.60;99.90;;;;;;4975473;28;8964;-58
2022/10/07 09:07:46;;;;;;;;;8.25;8.25;21.50;99.90;;;;;;4968459;28;8886;-58
2022/10/07 09:10:43;;;;;;;;;6.75;6.75;21.50;99.90;;;;;;4971194;28;9059;-60
2022/10/07 09:13:25;;;;;;;;;8.75;8.75;21.40;99.90;;;;;;4974009;28;8878;-60
2022/10/07 09:16:15;;;;;;;;;7.00;7.00;21.40;99.90;;;;;;4974384;28;8885;-59
2022/10/07 09:18:52;;;;;;;;;9.00;9.00;21.40;99.90;;;;;;4966492;28;9677;-60
2022/10/07 09:21:40;;;;;;;;;7.75;7.75;21.30;99.90;;;;;;4967270;28;8865;-60
2022/10/07 09:24:24;;;;;;;;;8.25;8.25;21.20;99.90;;;;;;4975755;28;8859;-61
2022/10/07 09:26:56;;;;;;;;;9.00;9.00;21.20;99.90;;;;;;4967919;28;8859;-58
2022/10/07 09:29:31;;;;;;;;;9.25;9.25;21.20;99.90;;;;;;4970415;28;8850;-58
2022/10/07 09:32:02;;;;;;;;;8.75;8.75;21.10;99.90;;;;;;4971883;28;8866;-60
2022/10/07 09:34:33;;;;;;;;;9.00;9.00;21.10;99.90;;;;;;4970633;28;8865;-59
2022/10/07 09:37:21;;;;;;;;;8.50;8.50;21.00;99.90;;;;;;4971314;28;8853;-57
2022/10/07 09:39:56;;;;;;;;;10.00;10.00;21.00;99.90;;;;;;4973129;28;8846;-62
2022/10/07 09:42:42;;;;;;;;;8.00;8.00;21.00;99.90;;;;;;4972091;28;8875;-58
2022/10/07 09:45:27;;;;;;;;;7.50;7.50;21.00;99.90;;;;;;4972058;28;8841;-57
2022/10/07 09:48:06;;;;;;;;;9.00;9.00;21.00;99.90;;;;;;4971005;28;8885;-58
2022/10/07 09:50:41;;;;;;;;;5.75;5.75;21.00;99.90;;;;;;4974283;28;8887;-60
2022/10/07 09:53:27;;;;;;;;;8.00;8.00;21.00;99.90;;;;;;4970178;28;9600;-61
2022/10/07 09:55:58;;;;;;;;;8.25;8.25;21.10;99.90;;;;;;4955219;28;8866;-60
2022/10/07 09:58:32;;;;;;;;;8.50;8.50;21.20;99.90;;;;;;4972570;28;8888;-58
2022/10/07 10:01:10;;;;;;;;;6.50;6.50;21.40;99.90;;;;;;4975514;28;8831;-59
2022/10/07 10:03:43;;;;;;;;;8.25;7.75;21.40;99.90;;;;;;4971543;28;8869;-60
2022/10/07 10:06:13;;;;;;;;;7.00;7.00;21.50;99.90;;;;;;4972385;28;8866;-61
2022/10/07 10:08:45;;;;;;;;;8.75;8.75;21.50;99.90;;;;;;4968247;28;8889;-57
2022/10/07 10:11:27;;;;;;;;;8.50;8.50;21.50;99.90;;;;;;4971843;28;8905;-58
2022/10/07 10:13:58;;;;;;;;;7.25;7.25;21.40;99.90;;;;;;4968483;28;8900;-62
2022/10/07 10:16:39;;;;;;;;;4.50;4.50;21.40;99.90;;;;;;4972768;28;8841;-61
2022/10/07 10:19:26;;;;;;;;;6.50;6.50;21.30;99.90;;;;;;4971747;28;8842;-61
2022/10/07 10:22:02;;;;;;;;;6.25;6.25;21.30;99.90;;;;;;4969236;28;8839;-60
2022/10/07 10:27:35;;;;;;;;;9.25;8.75;21.60;99.90;;;;;;4969756;28;8851;-57
2022/10/07 10:30:09;;;;;;;;;7.00;7.00;21.50;99.90;;;;;;4970024;28;8870;-58
2022/10/07 10:33:09;;;;;;;;;6.00;6.00;21.50;99.90;;;;;;4973975;28;8900;-60
2022/10/07 10:35:55;;;;;;;;;8.25;8.25;21.50;99.90;;;;;;4972391;28;8863;-60
2022/10/07 10:39:00;;;;;;;;;7.00;7.00;21.40;99.90;;;;;;4973047;28;8865;-58
2022/10/07 10:41:49;;;;;;;;;8.50;7.75;21.30;99.90;;;;;;4979239;28;8858;-60
2022/10/07 10:44:49;;;;;;;;;6.75;6.75;21.30;99.90;;;;;;4973398;28;8869;-63
2022/10/07 10:47:45;;;;;;;;;8.00;8.00;21.30;99.90;;;;;;4972781;28;8843;-57
2022/10/07 10:50:37;;;;;;;;;7.00;7.00;21.30;99.90;;;;;;4972289;28;8943;-57
2022/10/07 10:53:33;;;;;;;;;8.50;8.50;21.30;99.90;;;;;;4972581;28;8831;-59
2022/10/07 10:56:22;;;;;;;;;4.00;4.00;21.20;99.90;;;;;;4974712;28;8855;-60
2022/10/07 10:59:08;;;;;;;;;6.00;6.00;21.10;99.90;;;;;;4975821;28;8828;-57
2022/10/07 11:01:41;;;;;;;;;7.25;7.00;21.10;99.90;;;;;;4971274;28;8909;-57
2022/10/07 11:04:20;;;;;;;;;9.25;7.75;21.10;99.90;;;;;;4976333;28;9701;-59
2022/10/07 11:07:23;;;;;;;;;8.50;8.50;21.00;99.90;;;;;;4975445;28;9652;-59
2022/10/07 11:10:06;;;;;;;;;8.00;8.00;20.90;99.90;;;;;;4970660;28;8867;-57
2022/10/07 11:12:42;;;;;;;;;7.75;7.75;20.90;99.90;;;;;;4975637;28;8846;-58
2022/10/07 11:15:34;;;;;;;;;8.25;8.25;20.80;99.90;;;;;;4970581;28;8902;-59
2022/10/07 11:18:12;;;;;;;;;7.25;7.25;20.80;99.90;;;;;;5003296;28;8896;-58
2022/10/07 11:20:47;;;;;;;;;8.00;8.00;20.80;99.90;;;;;;4978386;28;8867;-59
2022/10/07 11:23:42;;;;;;;;;8.25;8.25;20.80;99.90;;;;;;4973774;28;8843;-60
2022/10/07 11:26:37;;;;;;;;;7.00;7.00;20.80;99.90;;;;;;4973822;28;9727;-60
2022/10/07 11:29:33;;;;;;;;;10.25;10.25;20.80;99.90;;;;;;4971858;28;9616;-59
2022/10/07 11:32:11;;;;;;;;;8.00;8.00;20.80;99.90;;;;;;4973266;28;8908;-59
2022/10/07 11:35:03;;;;;;;;;8.00;8.00;20.80;99.90;;;;;;4971994;28;8902;-58
2022/10/07 11:38:08;;;;;;;;;5.75;5.75;20.70;99.90;;;;;;4973723;28;8892;-56
2022/10/07 11:40:58;;;;;;;;;7.50;7.50;20.80;99.90;;;;;;4969236;28;8879;-61
2022/10/07 11:43:37;;;;;;;;;7.00;7.00;20.70;99.90;;;;;;4967105;28;8841;-58
2022/10/07 11:46:17;;;;;;;;;6.25;6.25;20.80;99.90;;;;;;4971965;28;9603;-59
2022/10/07 11:49:02;;;;;;;;;8.00;8.00;20.70;99.90;;;;;;4972246;28;8854;-58
2022/10/07 11:51:46;;;;;;;;;7.00;7.00;20.80;99.90;;;;;;4969289;28;8843;-58
2022/10/07 11:54:22;;;;;;;;;8.25;8.25;20.90;99.90;;;;;;4971146;28;8857;-60
2022/10/07 11:56:57;;;;;;;;;7.25;7.25;20.90;99.90;;;;;;4973579;28;8838;-59
2022/10/07 11:59:40;;;;;;;;;6.00;6.00;20.90;99.90;;;;;;4972168;28;9564;-59
2022/10/07 12:02:38;;;;;;;;;6.25;6.25;20.80;99.90;;;;;;4971364;28;8865;-59
2022/10/07 12:05:42;;;;;;;;;6.00;6.00;20.70;99.90;;;;;;4973858;28;8868;-57
2022/10/07 12:08:37;;;;;;;;;7.00;7.00;20.70;99.90;;;;;;4965119;28;9595;-59
2022/10/07 12:11:14;;;;;;;;;8.00;7.00;20.70;99.90;;;;;;4972486;28;8869;-58
2022/10/07 12:13:49;;;;;;;;;8.50;8.50;20.80;99.90;;;;;;4970819;28;8886;-60
2022/10/07 12:16:30;;;;;;;;;6.25;6.25;20.70;99.90;;;;;;4990153;28;8866;-59
2022/10/07 12:19:07;;;;;;;;;10.00;8.50;20.60;99.90;;;;;;4971297;28;8893;-59
2022/10/07 12:22:03;;;;;;;;;8.00;6.25;20.60;99.90;;;;;;4971995;28;10070;-60
2022/10/07 12:24:36;;;;;;;;;6.00;6.00;20.50;99.90;;;;;;4974812;28;8847;-57
2022/10/07 12:27:15;;;;;;;;;7.00;7.00;20.50;99.90;;;;;;4971918;28;8838;-57
2022/10/07 12:29:47;;;;;;;;;6.25;6.25;20.40;99.90;;;;;;4965415;28;8973;-58
2022/10/07 12:32:55;;;;;;;;;6.00;6.00;20.50;99.90;;;;;;4974337;28;8834;-62
2022/10/07 12:35:35;;;;;;;;;8.25;8.25;20.40;99.90;;;;;;4957526;28;8869;-59
2022/10/07 12:38:15;;;;;;;;;6.00;6.00;20.40;99.90;;;;;;4977499;28;9996;-58
2022/10/07 12:41:30;;;;;;;;;8.00;8.00;20.40;99.90;;;;;;4971919;28;10483;-58
2022/10/07 12:44:17;;;;;;;;;6.50;6.50;20.40;99.90;;;;;;4976438;28;9017;-58
2022/10/07 12:46:59;;;;;;;;;7.00;7.00;20.30;99.90;;;;;;4974671;28;9317;-58
2022/10/07 12:49:50;;;;;;;;;8.75;8.75;20.50;99.90;;;;;;4975450;28;9653;-57
2022/10/07 12:52:42;;;;;;;;;7.75;7.75;20.50;99.90;;;;;;4972339;28;9268;-57
2022/10/07 12:55:53;;;;;;;;;8.75;8.75;20.40;99.90;;;;;;4965950;28;8847;-58
2022/10/07 13:01:51;;;;;;;;;8.75;8.75;20.60;99.90;;;;;;4973317;28;8953;-58
2022/10/07 13:05:00;;;;;;;;;7.75;7.75;20.60;99.90;;;;;;5002008;28;8866;-57
2022/10/07 13:07:48;;;;;;;;;9.50;9.50;20.60;99.90;;;;;;4991413;28;8842;-58
2022/10/07 13:10:25;;;;;;;;;7.50;7.50;20.60;99.90;;;;;;4976022;28;8862;-59
2022/10/07 13:13:05;;;;;;;;;7.00;7.00;20.60;99.90;;;;;;4976800;28;8840;-61
2022/10/07 13:15:53;;;;;;;;;10.25;10.00;20.70;99.90;;;;;;4973060;28;9378;-58
2022/10/07 13:18:54;;;;;;;;;9.00;8.00;20.70;99.90;;;;;;4976450;28;8888;-57
2022/10/07 13:21:50;;;;;;;;;9.25;9.25;20.70;99.90;;;;;;4972663;28;8880;-58
2022/10/07 13:24:26;;;;;;;;;8.75;8.75;20.70;99.90;;;;;;4974291;28;8858;-59
2022/10/07 13:26:58;;;;;;;;;10.00;10.00;20.80;99.90;;;;;;5001308;28;8899;-59
2022/10/07 13:29:31;;;;;;;;;9.67;9.67;20.90;99.90;;;;;;4974049;28;10018;-58
2022/10/07 13:32:29;;;;;;;;;9.25;9.25;21.00;99.90;;;;;;5071167;27;13448;-57
2022/10/07 13:35:19;;;;;;;;;9.50;9.50;21.00;99.90;;;;;;5046599;28;8845;-58
2022/10/07 13:37:50;;;;;;;;;9.00;8.50;21.00;99.90;;;;;;5040942;28;8854;-58
2022/10/07 13:40:34;;;;;;;;;7.00;7.00;21.00;99.90;;;;;;5045547;28;8862;-57
2022/10/07 13:43:09;;;;;;;;;9.75;9.75;21.00;99.90;;;;;;5051007;28;8844;-57
2022/10/07 13:45:44;;;;;;;;;9.25;9.25;21.20;99.90;;;;;;5048725;28;8847;-56
2022/10/07 13:48:21;;;;;;;;;13.00;11.00;21.20;99.90;;;;;;5050744;28;8868;-59
2022/10/07 13:50:57;;;;;;;;;8.00;8.00;21.30;99.90;;;;;;5052585;28;8840;-59
2022/10/07 13:53:34;;;;;;;;;12.00;11.25;21.40;99.90;;;;;;5046636;28;8934;-66
2022/10/07 13:56:24;;;;;;;;;11.00;11.00;21.30;99.90;;;;;;5050025;28;8860;-60
2022/10/07 13:58:58;;;;;;;;;8.25;8.25;21.40;99.90;;;;;;5049608;28;9670;-62
2022/10/07 14:01:36;;;;;;;;;8.25;8.25;21.40;99.90;;;;;;5048994;28;8869;-60
2022/10/07 14:04:35;;;;;;;;;8.75;8.75;21.40;99.90;;;;;;5040014;28;8826;-60
2022/10/07 14:07:16;;;;;;;;;9.50;9.50;21.60;99.90;;;;;;5045494;28;8850;-59